Time;durP1;ratioP1;P1;durP2;ratioP2;P2;SDS_P1;SDS_P2;PMS_P1;PMS_P2;Temp;Humidity;BMP_temperature;BMP_pressure;BME280_temperature;BME280_humidity;BME280_pressure;Samples;Min_cycle;Max_cycle;Signal;HPM_P1;HPM_P2
2022/05/11 00:00:35;;;;;;;;;8.33;7.67;;;;;;;;5121495;27;47072;-78
2022/05/11 00:03:00;;;;;;;;;10.00;9.33;;;;;;;;5122835;27;45297;-78
2022/05/11 00:05:25;;;;;;;;;8.00;8.00;;;;;;;;5122636;27;45324;-78
2022/05/11 00:07:50;;;;;;;;;7.67;7.67;;;;;;;;5123040;27;45405;-78
2022/05/11 00:10:15;;;;;;;;;10.00;10.00;;;;;;;;5121320;27;45777;-78
2022/05/11 00:12:42;;;;;;;;;8.67;8.33;;;;;;;;5122606;27;46256;-78
2022/05/11 00:15:08;;;;;;;;;8.67;7.33;;;;;;;;5117746;27;45847;-78
2022/05/11 00:17:33;;;;;;;;;9.00;9.00;;;;;;;;5102062;27;45324;-79
2022/05/11 00:19:59;;;;;;;;;8.00;7.67;;;;;;;;5101758;27;45360;-78
2022/05/11 00:22:24;;;;;;;;;7.33;7.00;;;;;;;;5101744;27;45438;-78
2022/05/11 00:24:49;;;;;;;;;8.33;8.33;;;;;;;;5100475;27;45424;-78
2022/05/11 00:27:14;;;;;;;;;8.00;8.00;;;;;;;;5102064;27;45339;-78
2022/05/11 00:29:40;;;;;;;;;9.00;9.00;;;;;;;;5101860;27;45299;-79
2022/05/11 00:32:05;;;;;;;;;12.67;10.00;;;;;;;;5101511;27;45337;-79
2022/05/11 00:34:30;;;;;;;;;8.33;7.33;;;;;;;;5100404;27;45926;-78
2022/05/11 00:36:57;;;;;;;;;11.00;11.00;;;;;;;;5101634;27;45281;-78
2022/05/11 00:39:22;;;;;;;;;9.33;9.33;;;;;;;;5101588;27;45255;-79
2022/05/11 00:41:47;;;;;;;;;8.67;7.33;;;;;;;;5099944;27;47251;-78
2022/05/11 00:44:14;;;;;;;;;13.67;10.00;;;;;;;;5101648;27;45305;-79
2022/05/11 00:46:59;;;;;;;;;7.33;7.33;;;;;;;;5100313;27;45272;-79
2022/05/11 00:49:38;;;;;;;;;10.00;10.00;;;;;;;;5100619;27;45728;-78
2022/05/11 00:52:14;;;;;;;;;11.00;10.33;;;;;;;;5100881;27;46265;-78
2022/05/11 00:54:45;;;;;;;;;13.33;13.33;;;;;;;;5101480;27;45405;-78
2022/05/11 00:57:43;;;;;;;;;13.00;11.33;;;;;;;;5100037;27;45285;-79
2022/05/11 01:00:10;;;;;;;;;12.00;12.00;;;;;;;;5099727;27;46586;-79
2022/05/11 01:02:37;;;;;;;;;11.33;11.33;;;;;;;;5099864;27;48342;-78
2022/05/11 01:05:04;;;;;;;;;13.00;12.67;;;;;;;;5099515;27;45428;-79
2022/05/11 01:07:29;;;;;;;;;17.00;16.33;;;;;;;;5099837;27;45239;-78
2022/05/11 01:09:54;;;;;;;;;16.00;15.00;;;;;;;;5099571;27;45882;-78
2022/05/11 01:12:21;;;;;;;;;15.67;15.67;;;;;;;;5099778;27;46660;-79
2022/05/11 01:14:50;;;;;;;;;15.67;15.67;;;;;;;;5103126;27;45267;-78
2022/05/11 01:17:15;;;;;;;;;17.67;17.67;;;;;;;;5120421;27;45396;-78
2022/05/11 01:19:44;;;;;;;;;16.00;15.00;;;;;;;;5121271;27;45535;-79
2022/05/11 01:22:20;;;;;;;;;18.00;18.00;;;;;;;;5121426;27;45372;-78
2022/05/11 01:24:47;;;;;;;;;16.00;15.67;;;;;;;;5121481;27;45267;-79
2022/05/11 01:27:24;;;;;;;;;16.00;16.00;;;;;;;;5120364;27;45298;-79
2022/05/11 01:29:50;;;;;;;;;15.33;15.33;;;;;;;;5121383;27;45379;-78
2022/05/11 01:32:15;;;;;;;;;17.67;16.33;;;;;;;;5119568;27;46136;-79
2022/05/11 01:34:40;;;;;;;;;15.67;14.67;;;;;;;;5119962;27;45728;-79
2022/05/11 01:37:06;;;;;;;;;12.67;12.67;;;;;;;;5121365;27;45457;-78
2022/05/11 01:39:32;;;;;;;;;14.00;13.33;;;;;;;;5119928;27;45542;-79
2022/05/11 01:41:57;;;;;;;;;13.00;12.00;;;;;;;;5119686;27;48328;-78
2022/05/11 01:44:23;;;;;;;;;14.67;14.67;;;;;;;;5121277;27;45339;-78
2022/05/11 01:46:49;;;;;;;;;15.00;15.00;;;;;;;;5121471;27;45294;-78
2022/05/11 01:49:15;;;;;;;;;14.33;13.00;;;;;;;;5121034;27;45305;-79
2022/05/11 01:51:40;;;;;;;;;16.00;14.67;;;;;;;;5120878;27;45730;-78
2022/05/11 01:54:06;;;;;;;;;14.00;12.33;;;;;;;;5119868;27;45360;-79
2022/05/11 01:56:31;;;;;;;;;20.00;16.67;;;;;;;;5119907;27;45407;-79
2022/05/11 01:58:57;;;;;;;;;16.00;16.00;;;;;;;;5121003;27;45409;-78
2022/05/11 02:01:24;;;;;;;;;14.33;14.00;;;;;;;;5119489;27;47822;-78
2022/05/11 02:03:50;;;;;;;;;12.00;12.00;;;;;;;;5121067;27;45429;-78
2022/05/11 02:08:59;;;;;;;;;11.33;11.33;;;;;;;;5120740;27;45421;-78
2022/05/11 02:11:26;;;;;;;;;14.00;13.00;;;;;;;;5120720;27;46053;-79
2022/05/11 02:13:51;;;;;;;;;15.33;14.33;;;;;;;;5120880;27;45341;-78
2022/05/11 02:16:16;;;;;;;;;15.00;14.33;;;;;;;;5104623;27;45369;-79
2022/05/11 02:18:41;;;;;;;;;13.67;13.67;;;;;;;;5100140;27;45332;-78
2022/05/11 02:21:07;;;;;;;;;12.67;12.00;;;;;;;;5099745;27;45332;-78
2022/05/11 02:23:33;;;;;;;;;17.67;16.33;;;;;;;;5098601;27;45422;-78
2022/05/11 02:25:58;;;;;;;;;19.33;18.00;;;;;;;;5100448;27;45242;-78
2022/05/11 02:28:23;;;;;;;;;17.00;17.00;;;;;;;;5100219;27;45259;-79
2022/05/11 02:30:51;;;;;;;;;17.00;16.33;;;;;;;;5098978;27;48336;-78
2022/05/11 02:33:16;;;;;;;;;15.00;14.33;;;;;;;;5099985;27;45479;-79
2022/05/11 02:35:42;;;;;;;;;15.33;15.33;;;;;;;;5100157;27;45226;-78
2022/05/11 02:38:14;;;;;;;;;16.00;14.67;;;;;;;;5099568;27;45269;-78
2022/05/11 02:40:40;;;;;;;;;15.00;14.33;;;;;;;;5100135;27;46105;-78
2022/05/11 02:43:05;;;;;;;;;19.00;17.33;;;;;;;;5099999;27;45608;-78
2022/05/11 02:45:31;;;;;;;;;14.00;14.00;;;;;;;;5099050;27;45276;-78
2022/05/11 02:47:57;;;;;;;;;11.33;11.33;;;;;;;;5093071;27;47579;-78
2022/05/11 02:50:25;;;;;;;;;13.00;12.00;;;;;;;;5087886;27;46323;-79
2022/05/11 02:52:50;;;;;;;;;14.67;14.67;;;;;;;;5077837;28;45345;-78
2022/05/11 02:55:16;;;;;;;;;15.33;15.33;;;;;;;;5079507;27;45279;-79
2022/05/11 02:57:41;;;;;;;;;11.00;11.00;;;;;;;;5079297;28;45314;-78
2022/05/11 03:00:09;;;;;;;;;16.00;16.00;;;;;;;;5079346;28;45351;-78
2022/05/11 03:02:35;;;;;;;;;15.33;14.33;;;;;;;;5079320;27;45241;-78
2022/05/11 03:05:00;;;;;;;;;15.33;15.33;;;;;;;;5077733;28;45476;-79
2022/05/11 03:07:25;;;;;;;;;15.00;14.67;;;;;;;;5077727;28;46174;-78
2022/05/11 03:09:52;;;;;;;;;13.00;13.00;;;;;;;;5079249;27;46038;-78
2022/05/11 03:12:17;;;;;;;;;14.33;14.33;;;;;;;;5079262;27;45264;-78
2022/05/11 03:14:43;;;;;;;;;12.00;12.00;;;;;;;;5084659;27;45184;-78
2022/05/11 03:17:08;;;;;;;;;16.67;16.67;;;;;;;;5122253;27;45972;-78
2022/05/11 03:19:34;;;;;;;;;13.67;13.00;;;;;;;;5121937;27;47537;-78
2022/05/11 03:21:59;;;;;;;;;12.33;11.67;;;;;;;;5123599;27;45360;-78
2022/05/11 03:24:24;;;;;;;;;13.33;12.33;;;;;;;;5123937;27;45400;-78
2022/05/11 03:26:50;;;;;;;;;15.33;14.67;;;;;;;;5123577;27;45362;-78
2022/05/11 03:29:15;;;;;;;;;15.33;15.33;;;;;;;;5122168;27;48243;-78
2022/05/11 03:31:40;;;;;;;;;15.33;15.00;;;;;;;;5123429;27;45746;-78
2022/05/11 03:36:50;;;;;;;;;15.67;15.33;;;;;;;;5122987;27;45317;-79
2022/05/11 03:39:16;;;;;;;;;15.00;14.33;;;;;;;;5121870;27;47920;-78
2022/05/11 03:41:42;;;;;;;;;13.33;13.00;;;;;;;;5123428;27;45388;-78
2022/05/11 03:44:07;;;;;;;;;12.33;12.33;;;;;;;;5122136;27;45403;-79
2022/05/11 03:46:32;;;;;;;;;13.00;12.67;;;;;;;;5122081;27;46121;-78
2022/05/11 03:48:58;;;;;;;;;11.00;11.00;;;;;;;;5123183;27;45230;-78
2022/05/11 03:51:24;;;;;;;;;14.67;14.00;;;;;;;;5123110;27;45323;-78
2022/05/11 03:53:49;;;;;;;;;14.00;14.00;;;;;;;;5123379;27;45316;-78
2022/05/11 03:56:15;;;;;;;;;16.00;14.67;;;;;;;;5122963;27;45398;-78
2022/05/11 03:58:40;;;;;;;;;12.00;12.00;;;;;;;;5122990;27;45309;-78
2022/05/11 04:01:05;;;;;;;;;14.33;14.33;;;;;;;;5121695;27;45792;-78
2022/05/11 04:03:30;;;;;;;;;15.67;14.00;;;;;;;;5123313;27;45271;-78
2022/05/11 04:05:56;;;;;;;;;16.00;15.33;;;;;;;;5122797;27;45498;-78
2022/05/11 04:08:21;;;;;;;;;14.00;13.33;;;;;;;;5122765;27;45284;-78
2022/05/11 04:10:46;;;;;;;;;13.33;13.33;;;;;;;;5121604;27;46060;-78
2022/05/11 04:13:11;;;;;;;;;13.67;13.67;;;;;;;;5123046;27;45215;-78
2022/05/11 04:15:37;;;;;;;;;15.33;14.33;;;;;;;;5113618;27;45412;-78
2022/05/11 04:18:02;;;;;;;;;15.67;15.67;;;;;;;;5102022;27;45233;-78
2022/05/11 04:20:27;;;;;;;;;13.67;13.67;;;;;;;;5100658;27;45231;-78
2022/05/11 04:22:54;;;;;;;;;15.00;15.00;;;;;;;;5102664;27;45222;-78
2022/05/11 04:25:20;;;;;;;;;15.33;14.67;;;;;;;;5100716;27;45311;-79
2022/05/11 04:27:46;;;;;;;;;18.00;16.00;;;;;;;;5102470;27;45631;-77
2022/05/11 04:30:15;;;;;;;;;15.67;15.67;;;;;;;;5103500;27;45383;-76
2022/05/11 04:32:40;;;;;;;;;17.33;16.33;;;;;;;;5100715;27;45293;-76
2022/05/11 04:35:06;;;;;;;;;16.00;14.00;;;;;;;;5101651;27;45275;-76
2022/05/11 04:37:32;;;;;;;;;17.00;16.00;;;;;;;;5101571;27;45278;-76
2022/05/11 04:39:57;;;;;;;;;16.67;16.67;;;;;;;;5100443;27;45693;-76
2022/05/11 04:42:22;;;;;;;;;18.00;17.67;;;;;;;;5100603;27;45345;-76
2022/05/11 04:44:47;;;;;;;;;21.67;21.00;;;;;;;;5100331;27;47293;-76
2022/05/11 04:47:14;;;;;;;;;21.67;20.67;;;;;;;;5100289;27;47060;-76
2022/05/11 04:49:41;;;;;;;;;22.33;21.33;;;;;;;;5101537;27;45341;-76
2022/05/11 04:52:08;;;;;;;;;18.33;17.67;;;;;;;;5100162;27;45343;-76
2022/05/11 04:54:40;;;;;;;;;21.67;20.67;;;;;;;;5101508;27;45318;-76
2022/05/11 04:57:06;;;;;;;;;19.00;19.00;;;;;;;;5099985;27;47322;-76
2022/05/11 04:59:32;;;;;;;;;22.67;22.33;;;;;;;;5101331;27;45393;-76
2022/05/11 05:01:59;;;;;;;;;22.00;21.33;;;;;;;;5101594;27;45345;-76
2022/05/11 05:04:24;;;;;;;;;24.33;24.00;;;;;;;;5101322;27;45444;-75
2022/05/11 05:06:49;;;;;;;;;23.00;23.00;;;;;;;;5099596;27;47439;-76
2022/05/11 05:09:14;;;;;;;;;27.67;26.33;;;;;;;;5101413;27;45341;-77
2022/05/11 05:11:40;;;;;;;;;24.00;23.67;;;;;;;;5094954;27;45398;-78
2022/05/11 05:14:06;;;;;;;;;23.67;22.00;;;;;;;;5098296;27;46127;-78
2022/05/11 05:16:32;;;;;;;;;25.33;25.33;;;;;;;;5117014;27;47905;-77
2022/05/11 05:18:57;;;;;;;;;34.00;31.00;;;;;;;;5121749;27;45280;-79
2022/05/11 05:21:22;;;;;;;;;30.25;29.00;;;;;;;;5120196;27;45249;-79
2022/05/11 05:23:47;;;;;;;;;29.33;28.00;;;;;;;;5121720;27;45230;-79
2022/05/11 05:26:12;;;;;;;;;25.33;25.33;;;;;;;;5122143;27;45402;-80
2022/05/11 05:31:21;;;;;;;;;30.67;29.00;;;;;;;;5122373;27;45470;-80
2022/05/11 05:33:47;;;;;;;;;29.00;26.33;;;;;;;;5122186;27;45164;-78
2022/05/11 05:36:12;;;;;;;;;33.67;31.00;;;;;;;;5121120;27;46361;-79
2022/05/11 05:38:38;;;;;;;;;24.67;24.33;;;;;;;;5121549;27;45259;-79
2022/05/11 05:41:07;;;;;;;;;30.00;29.00;;;;;;;;5120733;27;45363;-78
2022/05/11 05:43:33;;;;;;;;;34.67;31.67;;;;;;;;5122522;27;45348;-77
2022/05/11 05:45:58;;;;;;;;;27.33;27.33;;;;;;;;5122653;27;45668;-77
2022/05/11 05:48:23;;;;;;;;;30.33;28.67;;;;;;;;5122593;27;45583;-78
2022/05/11 05:50:49;;;;;;;;;30.00;28.67;;;;;;;;5120986;27;45253;-77
2022/05/11 05:53:19;;;;;;;;;29.00;27.33;;;;;;;;5119781;27;46041;-75
2022/05/11 05:55:45;;;;;;;;;28.33;28.00;;;;;;;;5119943;27;48549;-77
2022/05/11 05:58:12;;;;;;;;;29.67;28.00;;;;;;;;5121112;27;45349;-77
2022/05/11 06:00:37;;;;;;;;;32.67;30.67;;;;;;;;5120016;27;45297;-76
2022/05/11 06:03:03;;;;;;;;;34.00;30.75;;;;;;;;5121600;27;45492;-78
2022/05/11 06:05:29;;;;;;;;;28.67;28.00;;;;;;;;5120932;27;45986;-79
2022/05/11 06:07:55;;;;;;;;;28.67;28.33;;;;;;;;5119401;27;45804;-78
2022/05/11 06:10:20;;;;;;;;;31.33;29.33;;;;;;;;5121497;27;45405;-77
2022/05/11 06:12:45;;;;;;;;;30.67;28.33;;;;;;;;5120866;27;45289;-78
2022/05/11 06:15:13;;;;;;;;;26.00;26.00;;;;;;;;5094786;27;45425;-79
2022/05/11 06:17:38;;;;;;;;;31.00;29.00;;;;;;;;5085183;27;45304;-79
2022/05/11 06:20:04;;;;;;;;;26.67;26.00;;;;;;;;5080111;27;45314;-79
2022/05/11 06:22:29;;;;;;;;;27.67;27.67;;;;;;;;5079769;27;45371;-80
2022/05/11 06:24:54;;;;;;;;;29.33;28.33;;;;;;;;5078647;27;47106;-80
2022/05/11 06:27:21;;;;;;;;;27.00;25.67;;;;;;;;5078421;28;45631;-80
2022/05/11 06:29:51;;;;;;;;;32.00;30.33;;;;;;;;5079890;27;45433;-79
2022/05/11 06:32:19;;;;;;;;;26.00;26.00;;;;;;;;5082081;27;47399;-79
2022/05/11 06:34:44;;;;;;;;;29.00;28.33;;;;;;;;5079601;27;46989;-81
2022/05/11 06:37:09;;;;;;;;;27.67;27.33;;;;;;;;5079359;27;45416;-81
2022/05/11 06:39:35;;;;;;;;;27.00;26.67;;;;;;;;5079641;27;45409;-79
2022/05/11 06:42:00;;;;;;;;;26.67;25.33;;;;;;;;5079480;27;45382;-78
2022/05/11 06:44:25;;;;;;;;;22.67;22.67;;;;;;;;5082962;27;45479;-78
2022/05/11 06:46:51;;;;;;;;;27.00;26.00;;;;;;;;5079418;27;45299;-81
2022/05/11 06:49:16;;;;;;;;;25.67;25.00;;;;;;;;5080182;28;45508;-81
2022/05/11 06:51:41;;;;;;;;;21.67;20.67;;;;;;;;5082986;28;45398;-81
2022/05/11 06:59:34;;;;;;;;;23.67;22.33;;;;;;;;5082935;28;45627;-81
2022/05/11 07:02:03;;;;;;;;;19.33;19.33;;;;;;;;5081629;28;46103;-81
2022/05/11 07:04:28;;;;;;;;;22.00;22.00;;;;;;;;5084155;27;45331;-79
2022/05/11 07:06:55;;;;;;;;;20.33;19.33;;;;;;;;5083734;27;45239;-76
2022/05/11 07:09:21;;;;;;;;;18.67;18.67;;;;;;;;5084868;27;45222;-79
2022/05/11 07:14:30;;;;;;;;;20.00;20.00;;;;;;;;5086297;28;45218;-79
2022/05/11 07:16:55;;;;;;;;;18.33;18.33;;;;;;;;5128014;27;45216;-78
2022/05/11 07:19:23;;;;;;;;;16.33;16.33;;;;;;;;5132265;27;45223;-78
2022/05/11 07:21:48;;;;;;;;;16.67;15.33;;;;;;;;5116113;27;45495;-78
2022/05/11 07:24:14;;;;;;;;;17.67;17.67;;;;;;;;5084997;27;46208;-77
2022/05/11 07:26:39;;;;;;;;;18.33;17.33;;;;;;;;5085178;27;45362;-77
2022/05/11 07:29:04;;;;;;;;;14.00;14.00;;;;;;;;5088209;27;45353;-77
2022/05/11 07:31:30;;;;;;;;;14.33;14.33;;;;;;;;5083063;27;46632;-76
2022/05/11 07:33:55;;;;;;;;;16.00;14.33;;;;;;;;5091045;27;46055;-77
2022/05/11 07:36:21;;;;;;;;;15.00;15.00;;;;;;;;5103924;27;45304;-77
2022/05/11 07:38:46;;;;;;;;;14.00;14.00;;;;;;;;5097199;27;45381;-77
2022/05/11 07:41:11;;;;;;;;;13.00;13.00;;;;;;;;5092311;27;45605;-76
2022/05/11 07:43:37;;;;;;;;;16.67;16.33;;;;;;;;5082485;27;45326;-74
2022/05/11 07:46:03;;;;;;;;;15.00;14.33;;;;;;;;5082178;28;45375;-74
2022/05/11 07:48:28;;;;;;;;;16.33;16.33;;;;;;;;5083789;27;45502;-77
2022/05/11 07:50:54;;;;;;;;;15.67;14.00;;;;;;;;5087637;27;45665;-79
2022/05/11 07:53:19;;;;;;;;;13.00;12.67;;;;;;;;5082594;27;46218;-80
2022/05/11 07:55:44;;;;;;;;;12.00;12.00;;;;;;;;5082407;27;45208;-78
2022/05/11 08:00:55;;;;;;;;;12.33;11.67;;;;;;;;5081414;28;45239;-79
2022/05/11 08:03:20;;;;;;;;;13.33;13.33;;;;;;;;5080605;28;47420;-79
2022/05/11 08:05:45;;;;;;;;;7.00;6.67;;;;;;;;5081240;28;45820;-79
2022/05/11 08:08:10;;;;;;;;;11.67;11.67;;;;;;;;5082564;27;45234;-79
2022/05/11 08:10:38;;;;;;;;;10.67;10.67;;;;;;;;5081806;28;45220;-79
2022/05/11 08:13:07;;;;;;;;;11.33;11.33;;;;;;;;5082210;27;45373;-79
2022/05/11 08:15:34;;;;;;;;;8.00;8.00;;;;;;;;5098776;27;45343;-78
2022/05/11 08:17:59;;;;;;;;;11.00;11.00;;;;;;;;5121777;27;45242;-80
2022/05/11 08:20:28;;;;;;;;;9.00;9.00;;;;;;;;5122743;27;45228;-81
2022/05/11 08:22:54;;;;;;;;;9.00;8.00;;;;;;;;5122739;27;46016;-79
2022/05/11 08:25:21;;;;;;;;;7.33;7.33;;;;;;;;5121109;27;45392;-80
2022/05/11 08:27:46;;;;;;;;;7.67;7.67;;;;;;;;5123074;27;45279;-80
2022/05/11 08:35:40;;;;;;;;;7.33;7.33;;;;;;;;5123417;27;45341;-78
2022/05/11 08:38:06;;;;;;;;;8.00;8.00;;;;;;;;5123085;27;45313;-80
2022/05/11 08:40:34;;;;;;;;;9.00;8.00;;;;;;;;5121311;27;46230;-79
2022/05/11 08:43:02;;;;;;;;;8.00;8.00;;;;;;;;5122399;27;45254;-80
2022/05/11 08:45:31;;;;;;;;;9.00;8.00;;;;;;;;5122926;27;45301;-79
2022/05/11 08:47:57;;;;;;;;;6.00;6.00;;;;;;;;5099343;27;45357;-83
2022/05/11 08:50:27;;;;;;;;;0.00;0.00;;;;;;;;5092646;27;45458;-80
2022/05/11 08:53:02;;;;;;;;;6.67;6.67;;;;;;;;5098448;27;47215;-80
2022/05/11 08:55:43;;;;;;;;;5.67;5.67;;;;;;;;5101911;27;45369;-80
2022/05/11 08:58:16;;;;;;;;;4.67;4.00;;;;;;;;5085804;27;45323;-81
2022/05/11 09:00:43;;;;;;;;;4.00;4.00;;;;;;;;5081995;27;45331;-80
2022/05/11 09:03:14;;;;;;;;;5.00;5.00;;;;;;;;5082084;27;45374;-78
2022/05/11 09:05:40;;;;;;;;;4.67;4.67;;;;;;;;5082244;27;45335;-80
2022/05/11 09:08:08;;;;;;;;;4.00;4.00;;;;;;;;5081713;28;45270;-80
2022/05/11 09:10:34;;;;;;;;;4.33;3.00;;;;;;;;5080640;27;45465;-82
2022/05/11 09:13:04;;;;;;;;;3.00;3.00;;;;;;;;5080514;27;46033;-79
2022/05/11 09:15:49;;;;;;;;;4.00;3.00;;;;;;;;5097103;27;45350;-79
2022/05/11 09:18:15;;;;;;;;;4.67;4.00;;;;;;;;5120504;27;45290;-78
2022/05/11 09:20:45;;;;;;;;;5.00;5.00;;;;;;;;5118347;27;45402;-79
2022/05/11 09:23:10;;;;;;;;;5.00;5.00;;;;;;;;5100859;27;45273;-78
2022/05/11 09:25:37;;;;;;;;;4.00;4.00;;;;;;;;5101472;27;45270;-78
2022/05/11 09:28:18;;;;;;;;;5.33;4.00;;;;;;;;5101173;27;45282;-79
2022/05/11 09:30:58;;;;;;;;;3.67;3.67;;;;;;;;5101433;27;45352;-80
2022/05/11 09:33:50;;;;;;;;;3.00;3.00;;;;;;;;5099327;27;48088;-80
2022/05/11 09:36:32;;;;;;;;;5.00;5.00;;;;;;;;5092530;27;45469;-78
2022/05/11 09:39:04;;;;;;;;;5.00;5.00;;;;;;;;5101388;27;45455;-80
2022/05/11 09:41:30;;;;;;;;;4.00;4.00;;;;;;;;5099783;27;47299;-81
2022/05/11 09:43:56;;;;;;;;;3.67;3.67;;;;;;;;5101850;27;45347;-79
2022/05/11 09:46:21;;;;;;;;;4.33;3.33;;;;;;;;5101028;27;45574;-80
2022/05/11 09:48:52;;;;;;;;;3.00;3.00;;;;;;;;5099431;27;45491;-81
2022/05/11 09:51:19;;;;;;;;;2.67;2.67;;;;;;;;5099295;27;46328;-79
2022/05/11 09:54:07;;;;;;;;;3.00;2.33;;;;;;;;5100583;27;45400;-80
2022/05/11 09:56:34;;;;;;;;;4.00;4.00;;;;;;;;5098823;27;45353;-81
2022/05/11 09:59:16;;;;;;;;;3.00;3.00;;;;;;;;5100801;27;45140;-80
2022/05/11 10:01:41;;;;;;;;;5.00;4.00;;;;;;;;5100509;27;45337;-79
2022/05/11 10:04:08;;;;;;;;;4.00;3.00;;;;;;;;5098852;27;46936;-85
2022/05/11 10:06:47;;;;;;;;;4.00;4.00;;;;;;;;5099264;27;45365;-80
2022/05/11 10:09:15;;;;;;;;;3.33;3.33;;;;;;;;5101264;27;45188;-84
2022/05/11 10:11:47;;;;;;;;;13.67;13.33;;;;;;;;5100834;27;45312;-84
2022/05/11 10:22:38;;;;;;;;;2.33;2.33;;;;;;;;5080082;28;45413;-82
2022/05/11 10:25:06;;;;;;;;;2.67;2.67;;;;;;;;5078800;28;47602;-81
2022/05/11 10:27:44;;;;;;;;;6.67;4.67;;;;;;;;5078990;28;45350;-80
2022/05/11 10:30:09;;;;;;;;;6.00;5.00;;;;;;;;5081683;27;45467;-84
2022/05/11 10:32:54;;;;;;;;;6.00;6.00;;;;;;;;5081237;28;45366;-82
2022/05/11 10:35:22;;;;;;;;;7.67;6.67;;;;;;;;5078637;28;47553;-80
2022/05/11 10:37:53;;;;;;;;;4.00;4.00;;;;;;;;5079743;27;45344;-82
2022/05/11 10:40:25;;;;;;;;;2.33;2.33;;;;;;;;5079687;28;45355;-79
2022/05/11 10:43:12;;;;;;;;;3.00;3.00;;;;;;;;5079847;27;45261;-80
2022/05/11 10:45:45;;;;;;;;;3.33;3.33;;;;;;;;5079787;27;45502;-81
2022/05/11 10:48:16;;;;;;;;;3.00;3.00;;;;;;;;5079948;27;45424;-82
2022/05/11 10:50:51;;;;;;;;;5.33;4.67;;;;;;;;5079773;27;45163;-80
2022/05/11 10:53:21;;;;;;;;;3.00;3.00;;;;;;;;5078240;28;47248;-83
2022/05/11 10:56:11;;;;;;;;;4.00;3.00;;;;;;;;5079863;27;45625;-82
2022/05/11 10:58:56;;;;;;;;;4.00;3.00;;;;;;;;5078089;28;45381;-82
2022/05/11 11:01:22;;;;;;;;;3.00;2.67;;;;;;;;5078218;28;45240;-77
2022/05/11 11:04:03;;;;;;;;;4.00;4.00;;;;;;;;5079332;27;45454;-80
2022/05/11 11:09:24;;;;;;;;;3.00;3.00;;;;;;;;5080573;28;45283;-80
2022/05/11 11:11:59;;;;;;;;;5.33;5.00;;;;;;;;5079620;28;45296;-78
2022/05/11 11:14:32;;;;;;;;;3.00;2.67;;;;;;;;5078983;28;47404;-83
2022/05/11 11:16:57;;;;;;;;;3.67;3.67;;;;;;;;5121158;27;46497;-80
2022/05/11 11:19:24;;;;;;;;;2.00;2.00;;;;;;;;5118961;27;45344;-86
2022/05/11 11:21:49;;;;;;;;;3.67;3.33;;;;;;;;5123232;27;45235;-81
2022/05/11 11:24:22;;;;;;;;;4.00;3.00;;;;;;;;5123035;27;46168;-82
2022/05/11 11:26:58;;;;;;;;;3.00;3.00;;;;;;;;5122372;27;46249;-82
2022/05/11 11:29:28;;;;;;;;;2.67;2.67;;;;;;;;5121187;27;45326;-81
2022/05/11 11:32:02;;;;;;;;;3.00;3.00;;;;;;;;5118587;27;45351;-80
2022/05/11 11:34:31;;;;;;;;;3.67;3.00;;;;;;;;5121251;27;45576;-80
2022/05/11 11:36:57;;;;;;;;;1.67;1.67;;;;;;;;5123280;27;45364;-82
2022/05/11 11:39:42;;;;;;;;;3.67;3.00;;;;;;;;5122209;27;45387;-80
2022/05/11 11:42:07;;;;;;;;;2.00;2.00;;;;;;;;5122518;27;45357;-81
2022/05/11 11:44:46;;;;;;;;;3.33;3.00;;;;;;;;5122909;27;46931;-81
2022/05/11 11:47:31;;;;;;;;;2.33;2.33;;;;;;;;5127660;27;46141;-80
2022/05/11 11:49:58;;;;;;;;;2.00;2.00;;;;;;;;5126604;27;45351;-81
2022/05/11 11:52:34;;;;;;;;;2.00;1.67;;;;;;;;5126627;27;45337;-82
2022/05/11 11:55:00;;;;;;;;;2.00;1.00;;;;;;;;5127326;27;45476;-80
2022/05/11 11:57:27;;;;;;;;;5.33;5.00;;;;;;;;5126997;27;47077;-80
2022/05/11 11:59:58;;;;;;;;;5.67;5.33;;;;;;;;5126718;27;45376;-82
2022/05/11 12:02:38;;;;;;;;;4.00;4.00;;;;;;;;5112862;27;45316;-82
2022/05/11 12:05:08;;;;;;;;;0.00;0.00;;;;;;;;5102831;27;46092;-79
2022/05/11 12:16:02;;;;;;;;;3.00;3.00;;;;;;;;5119780;27;45210;-79
2022/05/11 12:18:31;;;;;;;;;2.00;2.00;;;;;;;;5128512;27;45368;-79
2022/05/11 12:20:57;;;;;;;;;3.33;3.33;;;;;;;;5127563;27;45519;-79
2022/05/11 12:23:29;;;;;;;;;3.33;3.00;;;;;;;;5125587;27;45524;-79
2022/05/11 12:25:57;;;;;;;;;4.67;4.67;;;;;;;;5126492;27;45182;-78
2022/05/11 12:28:42;;;;;;;;;4.33;3.33;;;;;;;;5127200;27;46193;-80
2022/05/11 12:31:08;;;;;;;;;3.00;3.00;;;;;;;;5125115;27;45329;-80
2022/05/11 12:33:36;;;;;;;;;6.33;5.00;;;;;;;;5129286;27;45207;-79
2022/05/11 12:36:01;;;;;;;;;4.00;4.00;;;;;;;;5128469;27;45360;-78
2022/05/11 12:38:29;;;;;;;;;4.00;4.00;;;;;;;;5105116;27;45331;-80
2022/05/11 12:40:54;;;;;;;;;5.00;4.00;;;;;;;;5086339;27;46065;-79
2022/05/11 12:43:28;;;;;;;;;3.00;3.00;;;;;;;;5083121;27;45294;-79
2022/05/11 12:46:20;;;;;;;;;3.33;3.33;;;;;;;;5078522;27;46012;-78
2022/05/11 12:48:55;;;;;;;;;2.00;2.00;;;;;;;;5100915;27;45325;-79
2022/05/11 12:51:25;;;;;;;;;3.00;3.00;;;;;;;;5100591;27;45539;-80
2022/05/11 12:53:52;;;;;;;;;4.33;4.33;;;;;;;;5094424;27;45227;-79
2022/05/11 12:56:18;;;;;;;;;4.00;4.00;;;;;;;;5083615;27;45543;-80
2022/05/11 12:58:49;;;;;;;;;2.33;2.00;;;;;;;;5080372;28;48120;-80
2022/05/11 13:01:16;;;;;;;;;4.00;3.33;;;;;;;;5082651;28;45354;-80
2022/05/11 13:03:42;;;;;;;;;3.00;3.00;;;;;;;;5082363;27;45294;-80
2022/05/11 13:06:23;;;;;;;;;3.00;3.00;;;;;;;;5081261;28;46874;-78
2022/05/11 13:08:49;;;;;;;;;3.67;3.67;;;;;;;;5083083;27;46409;-80
2022/05/11 13:11:15;;;;;;;;;4.00;4.00;;;;;;;;5094918;27;45439;-79
2022/05/11 13:13:42;;;;;;;;;1.33;1.33;;;;;;;;5101619;27;45172;-78
2022/05/11 13:16:11;;;;;;;;;3.00;3.00;;;;;;;;5117534;27;46453;-79
2022/05/11 13:18:36;;;;;;;;;3.00;2.67;;;;;;;;5125395;27;45306;-80
2022/05/11 13:21:05;;;;;;;;;2.00;2.00;;;;;;;;5126057;27;45798;-77
2022/05/11 13:23:33;;;;;;;;;3.00;3.00;;;;;;;;5127576;27;45332;-79
2022/05/11 13:26:00;;;;;;;;;3.00;3.00;;;;;;;;5126456;27;45280;-79
2022/05/11 13:28:25;;;;;;;;;2.67;2.67;;;;;;;;5126006;27;48624;-80
2022/05/11 13:30:53;;;;;;;;;3.67;3.67;;;;;;;;5131766;27;45398;-79
2022/05/11 13:33:26;;;;;;;;;4.00;3.00;;;;;;;;5123409;27;45376;-79
2022/05/11 13:36:06;;;;;;;;;3.67;3.67;;;;;;;;5104105;27;45535;-79
2022/05/11 13:38:32;;;;;;;;;3.00;3.00;;;;;;;;5101347;27;45243;-79
2022/05/11 13:40:59;;;;;;;;;1.33;1.33;;;;;;;;5102445;27;45305;-80
2022/05/11 13:43:26;;;;;;;;;2.00;2.00;;;;;;;;5102751;27;45443;-79
2022/05/11 13:46:04;;;;;;;;;2.33;2.33;;;;;;;;5102825;27;45342;-78
2022/05/11 13:48:32;;;;;;;;;3.00;2.67;;;;;;;;5100655;27;47568;-78
2022/05/11 13:51:08;;;;;;;;;2.00;2.00;;;;;;;;5102301;27;45340;-79
2022/05/11 13:53:34;;;;;;;;;1.67;1.67;;;;;;;;5102997;27;45354;-79
2022/05/11 13:55:59;;;;;;;;;2.67;2.67;;;;;;;;5101505;27;45385;-79
2022/05/11 13:58:32;;;;;;;;;1.67;1.67;;;;;;;;5101283;27;45479;-79
2022/05/11 14:01:09;;;;;;;;;2.67;2.67;;;;;;;;5096694;27;45205;-80
2022/05/11 14:03:39;;;;;;;;;1.67;1.67;;;;;;;;5082941;27;45441;-79
2022/05/11 14:06:06;;;;;;;;;3.00;3.00;;;;;;;;5080214;28;47646;-79
2022/05/11 14:08:33;;;;;;;;;3.67;3.67;;;;;;;;5079792;28;46315;-79
2022/05/11 14:10:59;;;;;;;;;2.67;2.33;;;;;;;;5081604;27;45332;-79
2022/05/11 14:13:24;;;;;;;;;4.00;3.00;;;;;;;;5080990;27;45404;-78
2022/05/11 14:15:49;;;;;;;;;3.00;2.00;;;;;;;;5105120;27;45440;-79
2022/05/11 14:18:20;;;;;;;;;2.00;2.00;;;;;;;;5123339;27;45373;-79
2022/05/11 14:20:45;;;;;;;;;2.00;2.00;;;;;;;;5122896;27;45276;-80
2022/05/11 14:23:11;;;;;;;;;2.00;2.00;;;;;;;;5125236;27;45201;-79
2022/05/11 14:25:36;;;;;;;;;4.00;4.00;;;;;;;;5127539;27;45226;-78
2022/05/11 14:28:01;;;;;;;;;3.00;2.00;;;;;;;;5125089;27;45322;-79
2022/05/11 14:30:27;;;;;;;;;3.00;2.00;;;;;;;;5123611;27;45132;-80
2022/05/11 14:32:52;;;;;;;;;1.67;1.67;;;;;;;;5122779;27;45348;-81
2022/05/11 14:35:19;;;;;;;;;2.00;2.00;;;;;;;;5122704;27;45267;-81
2022/05/11 14:37:44;;;;;;;;;2.00;2.00;;;;;;;;5122188;27;45470;-81
2022/05/11 14:40:10;;;;;;;;;2.00;1.00;;;;;;;;5122304;27;45378;-79
2022/05/11 14:42:36;;;;;;;;;1.33;1.33;;;;;;;;5125063;27;45307;-80
2022/05/11 14:45:01;;;;;;;;;1.33;1.33;;;;;;;;5123942;27;45543;-81
2022/05/11 14:47:27;;;;;;;;;1.00;1.00;;;;;;;;5122169;27;48100;-80
2022/05/11 14:49:52;;;;;;;;;1.00;1.00;;;;;;;;5123173;27;45286;-80
2022/05/11 14:52:18;;;;;;;;;1.33;1.33;;;;;;;;5123260;27;45542;-79
2022/05/11 14:54:43;;;;;;;;;0.33;0.33;;;;;;;;5121514;27;46352;-79
2022/05/11 15:02:37;;;;;;;;;1.00;1.00;;;;;;;;5125305;27;45402;-79
2022/05/11 15:05:06;;;;;;;;;2.00;2.00;;;;;;;;5121376;27;46470;-80
2022/05/11 15:07:32;;;;;;;;;1.33;1.33;;;;;;;;5124568;27;46269;-79
2022/05/11 15:09:57;;;;;;;;;1.00;1.00;;;;;;;;5124243;27;45324;-79
2022/05/11 15:15:07;;;;;;;;;1.00;1.00;;;;;;;;5122848;27;45374;-79
2022/05/11 15:17:33;;;;;;;;;0.67;0.67;;;;;;;;5104321;27;48544;-81
2022/05/11 15:20:02;;;;;;;;;0.00;0.00;;;;;;;;5105442;27;45389;-78
2022/05/11 15:22:27;;;;;;;;;2.00;2.00;;;;;;;;5105714;27;45331;-78
2022/05/11 15:24:53;;;;;;;;;3.33;2.00;;;;;;;;5097222;27;46555;-78